createdAt,value
2022-12-05T00:01:29.090Z,99.90
2022-12-05T00:03:57.069Z,99.90
2022-12-05T00:06:25.063Z,99.90
2022-12-05T00:08:52.423Z,99.90
2022-12-05T00:11:25.701Z,99.90
2022-12-05T00:13:54.340Z,99.90
2022-12-05T00:16:24.069Z,99.90
2022-12-05T00:18:51.417Z,99.90
2022-12-05T00:21:24.470Z,99.90
2022-12-05T00:23:52.761Z,99.90
2022-12-05T00:26:20.948Z,99.90
2022-12-05T00:28:47.853Z,99.90
2022-12-05T00:31:18.583Z,99.90
2022-12-05T00:33:46.489Z,99.90
2022-12-05T00:36:16.020Z,99.90
2022-12-05T00:38:43.188Z,99.90
2022-12-05T00:41:14.330Z,99.90
2022-12-05T00:43:41.758Z,99.90
2022-12-05T00:46:14.456Z,99.90
2022-12-05T00:48:41.328Z,99.90
2022-12-05T00:51:17.095Z,99.90
2022-12-05T00:53:45.087Z,99.90
2022-12-05T00:56:17.417Z,99.90
2022-12-05T00:58:44.880Z,99.90
2022-12-05T01:01:20.815Z,99.90
2022-12-05T01:03:48.714Z,99.90
2022-12-05T01:06:16.684Z,99.90
2022-12-05T01:08:43.517Z,99.90
2022-12-05T01:11:11.646Z,99.90
2022-12-05T01:13:38.487Z,99.90
2022-12-05T01:16:05.881Z,99.90
2022-12-05T01:18:32.952Z,99.90
2022-12-05T01:20:59.647Z,99.90
2022-12-05T01:23:26.336Z,99.90
2022-12-05T01:25:53.753Z,99.90
2022-12-05T01:28:20.854Z,99.90
2022-12-05T01:30:49.225Z,99.90
2022-12-05T01:33:16.345Z,99.90
2022-12-05T01:35:43.423Z,99.90
2022-12-05T01:38:12.242Z,99.90
2022-12-05T01:40:39.852Z,99.90
2022-12-05T01:43:18.326Z,99.90
2022-12-05T01:45:46.429Z,99.90
2022-12-05T01:48:19.699Z,99.90
2022-12-05T01:50:48.924Z,99.90
2022-12-05T01:53:17.463Z,99.90
2022-12-05T01:55:47.596Z,99.90
2022-12-05T01:58:15.045Z,99.90
2022-12-05T02:00:42.382Z,99.90
2022-12-05T02:03:14.077Z,99.90
2022-12-05T02:05:41.167Z,99.90
2022-12-05T02:08:11.062Z,99.90
2022-12-05T02:10:41.614Z,99.90
2022-12-05T02:13:17.693Z,99.90
2022-12-05T02:16:10.993Z,99.90
2022-12-05T02:19:31.620Z,99.90
2022-12-05T02:21:58.394Z,99.90
2022-12-05T02:24:58.869Z,99.90
2022-12-05T02:27:45.675Z,99.90
2022-12-05T02:30:23.811Z,99.90
2022-12-05T02:32:59.590Z,99.90
2022-12-05T02:35:46.496Z,99.90
2022-12-05T02:38:27.130Z,99.90
2022-12-05T02:41:24.690Z,99.90
2022-12-05T02:44:06.599Z,99.90
2022-12-05T02:46:37.816Z,99.90
2022-12-05T02:49:09.427Z,99.90
2022-12-05T02:51:41.712Z,99.90
2022-12-05T02:54:12.857Z,99.90
2022-12-05T02:56:42.294Z,99.90
2022-12-05T02:59:09.010Z,99.90
2022-12-05T03:01:35.806Z,99.90
2022-12-05T03:04:05.324Z,99.90
2022-12-05T03:06:41.194Z,99.90
2022-12-05T03:09:19.881Z,99.90
2022-12-05T03:11:56.752Z,99.90
2022-12-05T03:14:28.844Z,99.90
2022-12-05T03:16:58.151Z,99.90
2022-12-05T03:19:29.108Z,99.90
2022-12-05T03:22:14.250Z,99.90
2022-12-05T03:24:42.201Z,99.90
2022-12-05T03:27:23.978Z,99.90
2022-12-05T03:30:01.849Z,99.90
2022-12-05T03:33:00.902Z,99.90
2022-12-05T03:35:46.632Z,99.90
2022-12-05T03:38:14.337Z,99.90
2022-12-05T03:41:01.953Z,99.90
2022-12-05T03:43:36.080Z,99.90
2022-12-05T03:46:02.801Z,99.90
2022-12-05T03:48:37.038Z,99.90
2022-12-05T03:51:07.334Z,99.90
2022-12-05T03:53:40.300Z,99.90
2022-12-05T03:56:13.383Z,99.90
2022-12-05T03:58:58.496Z,99.90
2022-12-05T04:01:29.013Z,99.90
2022-12-05T04:04:02.160Z,99.90
2022-12-05T04:06:38.296Z,99.90
2022-12-05T04:09:16.923Z,99.90
2022-12-05T04:11:51.604Z,99.90
2022-12-05T04:14:47.287Z,99.90
2022-12-05T04:17:53.599Z,99.90
2022-12-05T04:20:55.799Z,99.90
2022-12-05T04:23:22.890Z,99.90
2022-12-05T04:26:12.199Z,99.90
2022-12-05T04:28:51.962Z,99.90
2022-12-05T04:31:31.839Z,99.90
2022-12-05T04:34:06.417Z,99.90
2022-12-05T04:36:55.782Z,99.90
2022-12-05T04:39:27.901Z,99.90
2022-12-05T04:42:03.254Z,99.90
2022-12-05T04:44:36.690Z,99.90
2022-12-05T04:47:07.441Z,99.90
2022-12-05T04:49:36.797Z,99.90
2022-12-05T04:52:08.700Z,99.90
2022-12-05T04:54:40.499Z,99.90
2022-12-05T04:57:20.975Z,99.90
2022-12-05T04:59:48.520Z,99.90
2022-12-05T05:02:20.325Z,1.00
2022-12-05T05:04:53.111Z,1.00
2022-12-05T05:07:20.301Z,1.00
2022-12-05T05:09:47.011Z,1.00
2022-12-05T05:12:18.722Z,1.00
2022-12-05T05:14:45.899Z,1.00
2022-12-05T05:17:12.632Z,1.00
2022-12-05T05:19:39.427Z,1.00
2022-12-05T05:22:06.200Z,1.00
2022-12-05T05:24:32.951Z,1.00
2022-12-05T05:26:59.688Z,1.00
2022-12-05T05:29:26.499Z,1.00
2022-12-05T05:31:53.279Z,1.00
2022-12-05T05:34:19.965Z,1.00
2022-12-05T05:36:51.952Z,1.00
2022-12-05T05:39:18.681Z,1.00
2022-12-05T05:41:45.410Z,1.00
2022-12-05T05:44:12.188Z,1.00
2022-12-05T05:46:39.956Z,1.00
2022-12-05T05:49:06.821Z,1.00
2022-12-05T05:51:33.613Z,1.00
2022-12-05T05:54:01.044Z,1.00
2022-12-05T05:56:28.422Z,1.00
2022-12-05T05:58:57.602Z,1.00
2022-12-05T06:01:24.611Z,1.00
2022-12-05T06:03:51.708Z,1.00
2022-12-05T06:06:19.936Z,1.00
2022-12-05T06:08:47.315Z,1.00
2022-12-05T06:11:23.141Z,1.00
2022-12-05T06:13:52.726Z,1.00
2022-12-05T06:16:21.226Z,1.00
2022-12-05T06:18:49.712Z,1.00
2022-12-05T06:21:17.063Z,1.00
2022-12-05T06:23:43.920Z,1.00
2022-12-05T06:26:13.678Z,1.00
2022-12-05T06:28:40.661Z,99.90
2022-12-05T06:31:09.474Z,1.00
2022-12-05T06:33:36.301Z,1.00
2022-12-05T06:36:08.272Z,1.00
2022-12-05T06:38:39.069Z,1.00
2022-12-05T06:41:11.334Z,1.00
2022-12-05T06:43:38.043Z,1.00
2022-12-05T06:46:09.262Z,1.00
2022-12-05T06:48:36.268Z,1.00
2022-12-05T06:51:03.610Z,99.90
2022-12-05T06:53:30.448Z,99.90
2022-12-05T06:56:02.523Z,99.90
2022-12-05T06:58:29.687Z,99.90
2022-12-05T07:01:15.549Z,99.90
2022-12-05T07:03:44.101Z,99.90
2022-12-05T07:06:11.390Z,99.90
2022-12-05T07:08:38.220Z,99.90
2022-12-05T07:11:05.100Z,99.90
2022-12-05T07:13:31.791Z,99.90
2022-12-05T07:15:59.110Z,99.90
2022-12-05T07:18:26.713Z,99.90
2022-12-05T07:21:12.860Z,99.90
2022-12-05T07:23:42.326Z,99.90
2022-12-05T07:26:11.557Z,99.90
2022-12-05T07:28:38.284Z,99.90
2022-12-05T07:31:10.605Z,99.90
2022-12-05T07:33:37.724Z,99.90
2022-12-05T07:36:10.872Z,99.90
2022-12-05T07:38:38.499Z,99.90
2022-12-05T07:41:12.733Z,99.90
2022-12-05T07:43:40.762Z,99.90
2022-12-05T07:46:09.290Z,99.90
2022-12-05T07:48:36.092Z,99.90
2022-12-05T07:51:05.019Z,99.90
2022-12-05T07:53:34.410Z,99.90
2022-12-05T07:56:02.761Z,99.90
2022-12-05T07:58:30.604Z,99.90
2022-12-05T08:00:58.856Z,99.90
2022-12-05T08:03:25.664Z,99.90
2022-12-05T08:05:52.372Z,99.90
2022-12-05T08:08:19.292Z,99.90
2022-12-05T08:10:46.118Z,99.90
2022-12-05T08:13:12.838Z,99.90
2022-12-05T08:15:39.573Z,1.00
2022-12-05T08:18:06.305Z,1.00
2022-12-05T08:20:33.026Z,1.00
2022-12-05T08:22:59.755Z,1.00
2022-12-05T08:25:26.556Z,99.90
2022-12-05T08:27:53.213Z,1.00
2022-12-05T08:30:20.235Z,1.00
2022-12-05T08:32:47.013Z,1.00
2022-12-05T08:35:13.800Z,1.00
2022-12-05T08:37:40.733Z,1.00
2022-12-05T08:40:08.174Z,1.00
2022-12-05T08:42:34.949Z,1.00
2022-12-05T08:45:01.735Z,1.00
2022-12-05T08:47:28.450Z,1.00
2022-12-05T08:49:55.279Z,99.90
2022-12-05T08:52:22.859Z,99.90
2022-12-05T08:54:49.664Z,99.90
2022-12-05T08:57:16.425Z,99.90
2022-12-05T08:59:43.158Z,99.90
2022-12-05T09:02:11.028Z,99.90
2022-12-05T09:04:37.798Z,99.90
2022-12-05T09:07:04.594Z,99.90
2022-12-05T09:09:32.559Z,1.00
2022-12-05T09:12:00.244Z,1.00
2022-12-05T09:14:32.689Z,1.00
2022-12-05T09:17:00.358Z,1.00
2022-12-05T09:19:28.569Z,1.00
2022-12-05T09:21:56.395Z,1.00
2022-12-05T09:24:23.259Z,1.00
2022-12-05T09:26:50.636Z,1.00
2022-12-05T09:29:18.315Z,1.00
2022-12-05T09:31:47.489Z,1.00
2022-12-05T09:34:15.311Z,1.00
2022-12-05T09:36:42.736Z,1.00
2022-12-05T09:39:10.970Z,1.00
2022-12-05T09:42:08.825Z,1.00
2022-12-05T09:44:35.624Z,1.00
2022-12-05T09:47:14.281Z,99.90
2022-12-05T09:49:51.658Z,99.90
2022-12-05T09:52:27.641Z,99.90
2022-12-05T09:54:55.595Z,99.90
2022-12-05T09:57:34.063Z,99.90
2022-12-05T10:00:03.695Z,99.90
2022-12-05T10:02:43.550Z,99.90
2022-12-05T10:05:25.221Z,99.90
2022-12-05T10:08:06.355Z,99.90
2022-12-05T10:10:57.099Z,99.90
2022-12-05T10:13:32.794Z,99.90
2022-12-05T10:16:04.915Z,99.90
2022-12-05T10:18:41.111Z,99.90
2022-12-05T10:21:43.368Z,99.90
2022-12-05T10:24:17.326Z,99.90
2022-12-05T10:26:54.576Z,99.90
2022-12-05T10:29:32.023Z,99.90
2022-12-05T10:32:11.120Z,99.90
2022-12-05T10:34:42.977Z,99.90
2022-12-05T10:37:16.689Z,99.90
2022-12-05T10:39:43.912Z,99.90
2022-12-05T10:42:16.009Z,99.90
2022-12-05T10:44:43.208Z,99.90
2022-12-05T10:47:10.391Z,99.90
2022-12-05T10:49:38.300Z,99.90
2022-12-05T10:52:05.534Z,99.90
2022-12-05T10:54:43.713Z,99.90
2022-12-05T10:57:28.402Z,99.90
2022-12-05T10:59:56.493Z,83.30
2022-12-05T11:02:30.620Z,49.10
2022-12-05T11:04:59.339Z,49.70
2022-12-05T11:07:50.989Z,66.60
2022-12-05T11:10:29.738Z,68.10
2022-12-05T11:12:59.213Z,77.60
2022-12-05T11:15:31.466Z,39.80
2022-12-05T11:18:16.906Z,30.50
2022-12-05T11:20:43.747Z,18.80
2022-12-05T11:23:27.699Z,5.60
2022-12-05T11:25:55.960Z,1.00
2022-12-05T11:28:29.465Z,1.00
2022-12-05T11:31:02.320Z,6.80
2022-12-05T11:33:32.177Z,45.50
2022-12-05T11:36:09.768Z,51.40
2022-12-05T11:38:36.920Z,46.30
2022-12-05T11:41:25.048Z,7.40
2022-12-05T11:44:04.618Z,1.00
2022-12-05T11:46:49.808Z,1.00
2022-12-05T11:49:38.343Z,1.00
2022-12-05T11:52:24.097Z,1.00
2022-12-05T11:55:05.447Z,1.00
2022-12-05T11:57:59.865Z,1.00
2022-12-05T12:00:47.545Z,1.00
2022-12-05T12:03:27.259Z,1.00
2022-12-05T12:06:11.819Z,1.00
2022-12-05T12:08:54.826Z,1.00
2022-12-05T12:11:43.107Z,1.00
2022-12-05T12:14:24.700Z,1.00
2022-12-05T12:17:19.564Z,1.00
2022-12-05T12:20:14.355Z,1.00
2022-12-05T12:23:05.826Z,1.00
2022-12-05T12:25:46.417Z,1.00
2022-12-05T12:28:52.711Z,1.00
2022-12-05T12:31:19.664Z,1.00
2022-12-05T12:34:15.559Z,1.00
2022-12-05T12:36:47.462Z,1.00
2022-12-05T12:39:38.928Z,1.00
2022-12-05T12:42:20.520Z,1.00
2022-12-05T12:45:24.912Z,1.00
2022-12-05T12:48:26.335Z,1.00
2022-12-05T12:50:54.745Z,1.00
2022-12-05T12:53:24.202Z,1.00
2022-12-05T12:56:01.424Z,1.00
2022-12-05T12:58:43.816Z,1.00
2022-12-05T13:01:28.636Z,1.00
2022-12-05T13:04:17.411Z,1.00
2022-12-05T13:06:54.961Z,1.00
2022-12-05T13:09:38.865Z,1.00
2022-12-05T13:12:10.733Z,1.00
2022-12-05T13:14:42.199Z,1.00
2022-12-05T13:17:15.610Z,1.00
2022-12-05T13:19:50.524Z,1.00
2022-12-05T13:22:19.736Z,1.00
2022-12-05T13:24:46.917Z,1.00
2022-12-05T13:27:19.586Z,1.00
2022-12-05T13:29:54.376Z,1.00
2022-12-05T13:32:34.380Z,1.00
2022-12-05T13:35:14.363Z,1.00
2022-12-05T13:38:07.479Z,1.00
2022-12-05T13:40:59.624Z,1.00
2022-12-05T13:43:29.021Z,1.00
2022-12-05T13:46:09.000Z,1.00
2022-12-05T13:48:41.274Z,1.00
2022-12-05T13:51:25.449Z,1.00
2022-12-05T13:54:03.712Z,1.00
2022-12-05T13:57:01.942Z,1.00
2022-12-05T14:00:01.185Z,1.00
2022-12-05T14:02:43.468Z,1.00
2022-12-05T14:05:19.101Z,1.00
2022-12-05T14:08:00.926Z,1.00
2022-12-05T14:10:36.274Z,1.00
2022-12-05T14:13:23.692Z,1.00
2022-12-05T14:15:51.906Z,1.00
2022-12-05T14:18:50.467Z,1.00
2022-12-05T14:21:53.987Z,1.00
2022-12-05T14:24:20.644Z,1.00
2022-12-05T14:27:13.851Z,1.00
2022-12-05T14:30:06.116Z,1.00
2022-12-05T14:32:36.417Z,1.00
2022-12-05T14:35:15.130Z,1.00
2022-12-05T14:37:52.636Z,1.00
2022-12-05T14:40:37.568Z,1.00
2022-12-05T14:43:07.437Z,1.00
2022-12-05T14:45:47.845Z,1.00
2022-12-05T14:48:14.542Z,1.00
2022-12-05T14:50:50.000Z,1.00
2022-12-05T14:53:32.166Z,1.00
2022-12-05T14:56:24.690Z,1.00
2022-12-05T14:58:56.810Z,1.00
2022-12-05T15:01:29.071Z,1.00
2022-12-05T15:04:17.563Z,1.00
2022-12-05T15:06:59.499Z,1.00
2022-12-05T15:09:57.982Z,1.00
2022-12-05T15:12:29.956Z,1.00
2022-12-05T15:15:19.860Z,1.00
2022-12-05T15:17:54.760Z,1.00
2022-12-05T15:20:24.465Z,1.00
2022-12-05T15:22:51.453Z,1.00
2022-12-05T15:25:30.726Z,1.00
2022-12-05T15:28:06.532Z,1.00
2022-12-05T15:30:39.660Z,1.00
2022-12-05T15:33:13.829Z,1.00
2022-12-05T15:35:41.358Z,5.20
2022-12-05T15:38:16.820Z,21.90
2022-12-05T15:40:47.549Z,54.90
2022-12-05T15:43:30.615Z,69.10
2022-12-05T15:46:24.399Z,84.50
2022-12-05T15:48:52.985Z,92.70
2022-12-05T15:51:22.961Z,97.10
2022-12-05T15:54:15.908Z,93.50
2022-12-05T15:56:52.379Z,98.00
2022-12-05T15:59:23.039Z,99.90
2022-12-05T16:01:55.244Z,99.90
2022-12-05T16:04:30.055Z,99.90
2022-12-05T16:07:00.681Z,99.80
2022-12-05T16:09:32.107Z,99.10
2022-12-05T16:12:16.977Z,99.90
2022-12-05T16:14:59.658Z,99.90
2022-12-05T16:17:30.924Z,88.10
2022-12-05T16:20:12.139Z,91.70
2022-12-05T16:22:50.545Z,99.90
2022-12-05T16:25:23.941Z,99.90
2022-12-05T16:28:07.844Z,99.90
2022-12-05T16:30:37.179Z,99.90
2022-12-05T16:33:08.272Z,99.90
2022-12-05T16:35:43.609Z,99.90
2022-12-05T16:38:14.858Z,99.40
2022-12-05T16:41:01.810Z,99.90
2022-12-05T16:43:43.266Z,99.90
2022-12-05T16:46:13.232Z,99.90
2022-12-05T16:48:44.989Z,99.90
2022-12-05T16:51:14.674Z,99.90
2022-12-05T16:53:52.530Z,99.90
2022-12-05T16:56:29.530Z,99.90
2022-12-05T16:58:56.904Z,99.90
2022-12-05T17:01:26.338Z,99.90
2022-12-05T17:03:54.714Z,99.90
2022-12-05T17:06:26.433Z,99.90
2022-12-05T17:08:54.334Z,99.90
2022-12-05T17:11:25.770Z,99.90
2022-12-05T17:13:54.703Z,99.90
2022-12-05T17:16:22.109Z,99.90
2022-12-05T17:18:49.404Z,99.90
2022-12-05T17:21:19.555Z,99.90
2022-12-05T17:23:48.152Z,99.90
2022-12-05T17:26:17.059Z,99.90
2022-12-05T17:28:43.950Z,99.90
2022-12-05T17:31:14.715Z,99.90
2022-12-05T17:33:42.199Z,99.90
2022-12-05T17:36:09.194Z,99.90
2022-12-05T17:38:36.004Z,99.90
2022-12-05T17:41:06.900Z,99.90
2022-12-05T17:43:34.353Z,99.90
2022-12-05T17:46:01.873Z,99.90
2022-12-05T17:48:28.691Z,99.90
2022-12-05T17:50:58.546Z,99.90
2022-12-05T17:53:25.386Z,99.90
2022-12-05T17:55:52.231Z,99.90
2022-12-05T17:58:19.060Z,99.90
2022-12-05T18:00:46.908Z,99.90
2022-12-05T18:03:16.107Z,99.90
2022-12-05T18:05:43.667Z,99.90
2022-12-05T18:08:11.256Z,99.90
2022-12-05T18:10:42.126Z,99.90
2022-12-05T18:13:09.512Z,99.90
2022-12-05T18:15:42.254Z,99.90
2022-12-05T18:18:15.002Z,99.90
2022-12-05T18:20:41.669Z,99.90
2022-12-05T18:23:09.423Z,99.90
2022-12-05T18:25:38.213Z,99.90
2022-12-05T18:28:04.946Z,99.90
2022-12-05T18:30:31.889Z,99.90
2022-12-05T18:32:58.580Z,99.90
2022-12-05T18:35:40.661Z,99.90
2022-12-05T18:38:08.693Z,99.90
2022-12-05T18:40:35.598Z,99.90
2022-12-05T18:43:02.739Z,99.90
2022-12-05T18:45:29.803Z,99.90
2022-12-05T18:48:04.594Z,99.90
2022-12-05T18:50:36.831Z,99.90
2022-12-05T18:53:03.652Z,99.90
2022-12-05T18:55:57.791Z,99.90
2022-12-05T18:58:17.126Z,99.90
2022-12-05T19:00:43.945Z,99.90
2022-12-05T19:03:10.800Z,99.90
2022-12-05T19:05:37.790Z,99.90
2022-12-05T19:08:04.792Z,99.90
2022-12-05T19:10:31.598Z,99.90
2022-12-05T19:12:58.332Z,99.90
2022-12-05T19:15:25.129Z,99.90
2022-12-05T19:17:51.835Z,99.90
2022-12-05T19:20:18.561Z,99.90
2022-12-05T19:22:45.288Z,99.90
2022-12-05T19:25:12.043Z,99.90
2022-12-05T19:27:38.743Z,99.90
2022-12-05T19:30:09.837Z,99.90
2022-12-05T19:32:40.488Z,99.90
2022-12-05T19:35:07.981Z,99.90
2022-12-05T19:37:36.162Z,99.90
2022-12-05T19:40:03.101Z,99.90
2022-12-05T19:42:30.881Z,99.90
2022-12-05T19:44:57.664Z,99.90
2022-12-05T19:47:24.515Z,99.90
2022-12-05T19:49:51.217Z,99.90
2022-12-05T19:52:18.144Z,99.90
2022-12-05T19:54:45.157Z,99.90
2022-12-05T19:57:12.452Z,99.90
2022-12-05T19:59:39.219Z,99.90
2022-12-05T20:02:06.061Z,99.90
2022-12-05T20:04:32.930Z,99.90
2022-12-05T20:06:59.658Z,99.90
2022-12-05T20:09:26.701Z,99.90
2022-12-05T20:11:56.047Z,99.90
2022-12-05T20:14:25.065Z,99.90
2022-12-05T20:16:53.304Z,99.90
2022-12-05T20:19:20.236Z,99.90
2022-12-05T20:21:47.001Z,99.90
2022-12-05T20:24:13.813Z,99.90
2022-12-05T20:26:42.731Z,99.90
2022-12-05T20:29:09.985Z,99.90
2022-12-05T20:31:39.096Z,99.90
2022-12-05T20:34:06.984Z,99.90
2022-12-05T20:36:34.897Z,99.90
2022-12-05T20:39:07.618Z,99.90
2022-12-05T20:41:35.172Z,99.90
2022-12-05T20:44:05.081Z,99.90
2022-12-05T20:46:32.212Z,99.90
2022-12-05T20:48:59.398Z,99.90
2022-12-05T20:51:32.611Z,99.90
2022-12-05T20:54:01.203Z,99.90
2022-12-05T20:56:32.378Z,99.90
2022-12-05T20:59:01.277Z,99.90
2022-12-05T21:01:29.766Z,99.90
2022-12-05T21:03:57.368Z,99.90
2022-12-05T21:06:29.435Z,99.90
2022-12-05T21:08:58.147Z,99.90
2022-12-05T21:11:26.503Z,99.90
2022-12-05T21:13:55.973Z,99.90
2022-12-05T21:16:23.388Z,99.90
2022-12-05T21:18:51.432Z,99.90
2022-12-05T21:21:21.352Z,99.90
2022-12-05T21:23:53.413Z,99.90
2022-12-05T21:26:20.853Z,99.90
2022-12-05T21:28:47.933Z,99.90
2022-12-05T21:31:16.050Z,99.90
2022-12-05T21:33:47.597Z,99.90
2022-12-05T21:36:15.288Z,99.90
2022-12-05T21:38:42.045Z,99.90
2022-12-05T21:41:08.763Z,99.90
2022-12-05T21:43:36.453Z,99.90
2022-12-05T21:46:04.378Z,99.90
2022-12-05T21:48:32.072Z,99.90
2022-12-05T21:50:58.796Z,99.90
2022-12-05T21:53:25.584Z,99.90
2022-12-05T21:56:03.932Z,99.90
2022-12-05T21:58:31.143Z,99.90
2022-12-05T22:00:57.805Z,99.90
2022-12-05T22:03:24.520Z,99.90
2022-12-05T22:05:58.749Z,99.90
2022-12-05T22:08:25.515Z,99.90
2022-12-05T22:10:52.343Z,99.90
2022-12-05T22:13:19.074Z,99.90
2022-12-05T22:15:45.818Z,99.90
2022-12-05T22:18:12.565Z,99.90
2022-12-05T22:20:39.260Z,99.90
2022-12-05T22:23:05.936Z,99.90
2022-12-05T22:25:32.645Z,99.90
2022-12-05T22:27:59.343Z,99.90
2022-12-05T22:30:26.064Z,99.90
2022-12-05T22:32:53.831Z,99.90
2022-12-05T22:35:20.546Z,99.90
2022-12-05T22:37:47.225Z,99.90
2022-12-05T22:40:14.412Z,99.90
2022-12-05T22:42:41.125Z,99.90
2022-12-05T22:45:08.310Z,99.90
2022-12-05T22:47:34.995Z,99.90
2022-12-05T22:50:02.221Z,99.90
2022-12-05T22:52:29.097Z,99.90
2022-12-05T22:54:55.989Z,99.90
2022-12-05T22:57:22.770Z,99.90
2022-12-05T22:59:49.449Z,99.90
2022-12-05T23:02:16.167Z,99.90
2022-12-05T23:04:42.898Z,99.90
2022-12-05T23:07:09.629Z,99.90
2022-12-05T23:09:36.343Z,99.90
2022-12-05T23:12:03.155Z,99.90
2022-12-05T23:14:29.850Z,99.90
2022-12-05T23:16:56.600Z,99.90
2022-12-05T23:19:23.459Z,99.90
2022-12-05T23:21:50.325Z,99.90
2022-12-05T23:24:17.025Z,99.90
2022-12-05T23:26:45.338Z,99.90
2022-12-05T23:29:13.196Z,99.90
2022-12-05T23:31:41.083Z,99.90
2022-12-05T23:34:08.731Z,99.90
2022-12-05T23:36:36.569Z,99.90
2022-12-05T23:39:04.670Z,99.90
2022-12-05T23:41:31.450Z,99.90
2022-12-05T23:43:58.212Z,99.90
2022-12-05T23:46:26.926Z,99.90
2022-12-05T23:48:55.054Z,99.90
2022-12-05T23:51:26.958Z,99.90
2022-12-05T23:53:59.225Z,99.90
2022-12-05T23:56:31.566Z,99.90
2022-12-05T23:59:00.681Z,99.90
